sensor_id;sensor_type;location;lat;lon;timestamp;P1;durP1;ratioP1;P2;durP2;ratioP2
17382;SDS011;8809;51.892;8.384;2022-11-20T00:01:41;17.13;;;10.93;;
17382;SDS011;8809;51.892;8.384;2022-11-20T00:04:16;15.07;;;10.70;;
17382;SDS011;8809;51.892;8.384;2022-11-20T00:06:46;17.88;;;11.25;;
17382;SDS011;8809;51.892;8.384;2022-11-20T00:09:14;20.52;;;12.50;;
17382;SDS011;8809;51.892;8.384;2022-11-20T00:11:45;15.00;;;11.45;;
17382;SDS011;8809;51.892;8.384;2022-11-20T00:14:12;17.63;;;11.90;;
17382;SDS011;8809;51.892;8.384;2022-11-20T00:16:39;18.27;;;11.85;;
17382;SDS011;8809;51.892;8.384;2022-11-20T00:19:06;15.77;;;10.98;;
17382;SDS011;8809;51.892;8.384;2022-11-20T00:21:32;17.98;;;11.43;;
17382;SDS011;8809;51.892;8.384;2022-11-20T00:24:01;18.25;;;12.13;;
17382;SDS011;8809;51.892;8.384;2022-11-20T00:26:28;19.42;;;12.82;;
17382;SDS011;8809;51.892;8.384;2022-11-20T00:28:56;16.55;;;10.27;;
17382;SDS011;8809;51.892;8.384;2022-11-20T00:31:24;16.58;;;10.90;;
17382;SDS011;8809;51.892;8.384;2022-11-20T00:33:51;14.63;;;10.00;;
17382;SDS011;8809;51.892;8.384;2022-11-20T00:36:19;12.80;;;9.00;;
17382;SDS011;8809;51.892;8.384;2022-11-20T00:38:55;15.50;;;10.27;;
17382;SDS011;8809;51.892;8.384;2022-11-20T00:44:48;14.82;;;10.23;;
17382;SDS011;8809;51.892;8.384;2022-11-20T00:47:25;16.80;;;11.18;;
17382;SDS011;8809;51.892;8.384;2022-11-20T00:50:14;17.77;;;11.15;;
17382;SDS011;8809;51.892;8.384;2022-11-20T00:52:53;15.18;;;9.90;;
17382;SDS011;8809;51.892;8.384;2022-11-20T00:55:24;16.05;;;10.20;;
17382;SDS011;8809;51.892;8.384;2022-11-20T00:57:58;16.10;;;10.77;;
17382;SDS011;8809;51.892;8.384;2022-11-20T01:00:25;15.55;;;10.95;;
17382;SDS011;8809;51.892;8.384;2022-11-20T01:02:52;18.10;;;10.73;;
17382;SDS011;8809;51.892;8.384;2022-11-20T01:05:21;15.48;;;10.18;;
17382;SDS011;8809;51.892;8.384;2022-11-20T01:07:48;15.23;;;10.32;;
17382;SDS011;8809;51.892;8.384;2022-11-20T01:10:15;19.80;;;11.27;;
17382;SDS011;8809;51.892;8.384;2022-11-20T01:12:44;17.75;;;10.90;;
17382;SDS011;8809;51.892;8.384;2022-11-20T01:15:33;16.45;;;10.60;;
17382;SDS011;8809;51.892;8.384;2022-11-20T01:18:01;16.30;;;10.93;;
17382;SDS011;8809;51.892;8.384;2022-11-20T01:20:28;16.13;;;11.05;;
17382;SDS011;8809;51.892;8.384;2022-11-20T01:22:55;15.88;;;10.73;;
17382;SDS011;8809;51.892;8.384;2022-11-20T01:25:22;17.73;;;10.57;;
17382;SDS011;8809;51.892;8.384;2022-11-20T01:27:51;15.85;;;10.57;;
17382;SDS011;8809;51.892;8.384;2022-11-20T01:30:18;16.00;;;10.27;;
17382;SDS011;8809;51.892;8.384;2022-11-20T01:32:45;15.18;;;11.02;;
17382;SDS011;8809;51.892;8.384;2022-11-20T01:35:12;16.88;;;10.55;;
17382;SDS011;8809;51.892;8.384;2022-11-20T01:37:39;17.75;;;11.55;;
17382;SDS011;8809;51.892;8.384;2022-11-20T01:40:06;17.95;;;11.00;;
17382;SDS011;8809;51.892;8.384;2022-11-20T01:42:36;21.95;;;12.38;;
17382;SDS011;8809;51.892;8.384;2022-11-20T01:48:20;19.55;;;11.55;;
17382;SDS011;8809;51.892;8.384;2022-11-20T01:50:49;17.85;;;11.23;;
17382;SDS011;8809;51.892;8.384;2022-11-20T01:53:18;19.65;;;11.73;;
17382;SDS011;8809;51.892;8.384;2022-11-20T01:55:51;18.00;;;11.55;;
17382;SDS011;8809;51.892;8.384;2022-11-20T01:58:20;16.80;;;11.57;;
17382;SDS011;8809;51.892;8.384;2022-11-20T02:00:54;18.73;;;12.75;;
17382;SDS011;8809;51.892;8.384;2022-11-20T02:03:21;18.50;;;11.88;;
17382;SDS011;8809;51.892;8.384;2022-11-20T02:05:50;18.35;;;13.13;;
17382;SDS011;8809;51.892;8.384;2022-11-20T02:08:22;19.30;;;12.07;;
17382;SDS011;8809;51.892;8.384;2022-11-20T02:10:50;18.00;;;12.60;;
17382;SDS011;8809;51.892;8.384;2022-11-20T02:13:17;18.20;;;11.90;;
17382;SDS011;8809;51.892;8.384;2022-11-20T02:16:03;17.90;;;11.75;;
17382;SDS011;8809;51.892;8.384;2022-11-20T02:18:32;16.25;;;11.07;;
17382;SDS011;8809;51.892;8.384;2022-11-20T02:21:00;13.88;;;10.52;;
17382;SDS011;8809;51.892;8.384;2022-11-20T02:23:32;16.10;;;11.15;;
17382;SDS011;8809;51.892;8.384;2022-11-20T02:26:06;20.27;;;12.35;;
17382;SDS011;8809;51.892;8.384;2022-11-20T02:28:38;20.98;;;12.48;;
17382;SDS011;8809;51.892;8.384;2022-11-20T02:31:05;17.10;;;11.80;;
17382;SDS011;8809;51.892;8.384;2022-11-20T02:33:32;17.05;;;11.77;;
17382;SDS011;8809;51.892;8.384;2022-11-20T02:36:00;16.88;;;11.25;;
17382;SDS011;8809;51.892;8.384;2022-11-20T02:38:27;15.57;;;11.10;;
17382;SDS011;8809;51.892;8.384;2022-11-20T02:40:54;16.98;;;12.35;;
17382;SDS011;8809;51.892;8.384;2022-11-20T02:43:22;19.25;;;12.55;;
17382;SDS011;8809;51.892;8.384;2022-11-20T02:45:50;17.00;;;11.77;;
17382;SDS011;8809;51.892;8.384;2022-11-20T02:48:16;17.10;;;10.95;;
17382;SDS011;8809;51.892;8.384;2022-11-20T02:50:51;18.88;;;11.73;;
17382;SDS011;8809;51.892;8.384;2022-11-20T02:53:27;18.17;;;11.52;;
17382;SDS011;8809;51.892;8.384;2022-11-20T02:56:08;16.17;;;11.02;;
17382;SDS011;8809;51.892;8.384;2022-11-20T02:59:05;14.23;;;10.18;;
17382;SDS011;8809;51.892;8.384;2022-11-20T03:01:32;17.73;;;11.90;;
17382;SDS011;8809;51.892;8.384;2022-11-20T03:03:59;17.25;;;11.18;;
17382;SDS011;8809;51.892;8.384;2022-11-20T03:06:28;13.25;;;10.05;;
17382;SDS011;8809;51.892;8.384;2022-11-20T03:08:56;21.85;;;12.73;;
17382;SDS011;8809;51.892;8.384;2022-11-20T03:11:23;19.58;;;12.23;;
17382;SDS011;8809;51.892;8.384;2022-11-20T03:13:50;14.95;;;11.50;;
17382;SDS011;8809;51.892;8.384;2022-11-20T03:16:19;18.20;;;11.32;;
17382;SDS011;8809;51.892;8.384;2022-11-20T03:18:48;16.80;;;11.02;;
17382;SDS011;8809;51.892;8.384;2022-11-20T03:21:16;17.30;;;11.43;;
17382;SDS011;8809;51.892;8.384;2022-11-20T03:23:55;18.38;;;12.10;;
17382;SDS011;8809;51.892;8.384;2022-11-20T03:26:28;17.88;;;11.10;;
17382;SDS011;8809;51.892;8.384;2022-11-20T03:29:06;18.88;;;11.80;;
17382;SDS011;8809;51.892;8.384;2022-11-20T03:31:36;14.73;;;10.65;;
17382;SDS011;8809;51.892;8.384;2022-11-20T03:34:06;15.57;;;10.27;;
17382;SDS011;8809;51.892;8.384;2022-11-20T03:36:33;18.85;;;11.77;;
17382;SDS011;8809;51.892;8.384;2022-11-20T03:39:01;15.50;;;10.07;;
17382;SDS011;8809;51.892;8.384;2022-11-20T03:41:28;17.23;;;10.55;;
17382;SDS011;8809;51.892;8.384;2022-11-20T03:43:57;16.38;;;11.18;;
17382;SDS011;8809;51.892;8.384;2022-11-20T03:46:27;15.90;;;10.80;;
17382;SDS011;8809;51.892;8.384;2022-11-20T03:48:56;14.70;;;10.10;;
17382;SDS011;8809;51.892;8.384;2022-11-20T03:51:25;17.75;;;10.45;;
17382;SDS011;8809;51.892;8.384;2022-11-20T03:53:54;15.77;;;10.32;;
17382;SDS011;8809;51.892;8.384;2022-11-20T03:56:30;16.70;;;10.52;;
17382;SDS011;8809;51.892;8.384;2022-11-20T03:59:14;16.80;;;10.00;;
17382;SDS011;8809;51.892;8.384;2022-11-20T04:01:41;16.60;;;10.65;;
17382;SDS011;8809;51.892;8.384;2022-11-20T04:04:09;21.52;;;12.45;;
17382;SDS011;8809;51.892;8.384;2022-11-20T04:06:36;18.77;;;11.43;;
17382;SDS011;8809;51.892;8.384;2022-11-20T04:09:04;17.75;;;11.50;;
17382;SDS011;8809;51.892;8.384;2022-11-20T04:11:32;15.93;;;11.25;;
17382;SDS011;8809;51.892;8.384;2022-11-20T04:14:01;19.83;;;11.45;;
17382;SDS011;8809;51.892;8.384;2022-11-20T04:16:31;15.70;;;10.95;;
17382;SDS011;8809;51.892;8.384;2022-11-20T04:19:13;17.88;;;10.82;;
17382;SDS011;8809;51.892;8.384;2022-11-20T04:22:03;17.17;;;11.32;;
17382;SDS011;8809;51.892;8.384;2022-11-20T04:24:34;13.52;;;10.15;;
17382;SDS011;8809;51.892;8.384;2022-11-20T04:27:01;18.30;;;10.50;;
17382;SDS011;8809;51.892;8.384;2022-11-20T04:29:28;13.52;;;9.95;;
17382;SDS011;8809;51.892;8.384;2022-11-20T04:32:01;16.13;;;10.68;;
17382;SDS011;8809;51.892;8.384;2022-11-20T04:34:30;18.13;;;11.00;;
17382;SDS011;8809;51.892;8.384;2022-11-20T04:36:57;16.80;;;10.65;;
17382;SDS011;8809;51.892;8.384;2022-11-20T04:39:24;13.82;;;9.65;;
17382;SDS011;8809;51.892;8.384;2022-11-20T04:41:50;17.63;;;10.80;;
17382;SDS011;8809;51.892;8.384;2022-11-20T04:44:38;17.35;;;10.38;;
17382;SDS011;8809;51.892;8.384;2022-11-20T04:47:05;16.85;;;10.70;;
17382;SDS011;8809;51.892;8.384;2022-11-20T04:49:34;17.83;;;10.30;;
17382;SDS011;8809;51.892;8.384;2022-11-20T04:52:01;15.35;;;10.50;;
17382;SDS011;8809;51.892;8.384;2022-11-20T04:54:32;15.60;;;10.75;;
17382;SDS011;8809;51.892;8.384;2022-11-20T04:57:23;15.57;;;9.70;;
17382;SDS011;8809;51.892;8.384;2022-11-20T04:59:58;17.20;;;10.48;;
17382;SDS011;8809;51.892;8.384;2022-11-20T05:02:30;17.42;;;10.27;;
17382;SDS011;8809;51.892;8.384;2022-11-20T05:04:59;16.58;;;10.57;;
17382;SDS011;8809;51.892;8.384;2022-11-20T05:07:26;15.52;;;9.88;;
17382;SDS011;8809;51.892;8.384;2022-11-20T05:09:52;13.50;;;8.82;;
17382;SDS011;8809;51.892;8.384;2022-11-20T05:12:19;13.45;;;9.32;;
17382;SDS011;8809;51.892;8.384;2022-11-20T05:14:46;14.35;;;9.63;;
17382;SDS011;8809;51.892;8.384;2022-11-20T05:17:13;18.23;;;9.95;;
17382;SDS011;8809;51.892;8.384;2022-11-20T05:19:41;15.45;;;8.43;;
17382;SDS011;8809;51.892;8.384;2022-11-20T05:22:27;13.35;;;9.23;;
17382;SDS011;8809;51.892;8.384;2022-11-20T05:25:13;17.02;;;10.07;;
17382;SDS011;8809;51.892;8.384;2022-11-20T05:27:41;14.23;;;9.35;;
17382;SDS011;8809;51.892;8.384;2022-11-20T05:30:14;14.05;;;9.13;;
17382;SDS011;8809;51.892;8.384;2022-11-20T05:32:44;13.30;;;8.35;;
17382;SDS011;8809;51.892;8.384;2022-11-20T05:35:11;14.98;;;10.10;;
17382;SDS011;8809;51.892;8.384;2022-11-20T05:37:39;12.48;;;8.73;;
17382;SDS011;8809;51.892;8.384;2022-11-20T05:40:06;12.85;;;8.63;;
17382;SDS011;8809;51.892;8.384;2022-11-20T05:42:36;14.15;;;8.68;;
17382;SDS011;8809;51.892;8.384;2022-11-20T05:45:04;15.02;;;9.88;;
17382;SDS011;8809;51.892;8.384;2022-11-20T05:47:32;14.63;;;8.80;;
17382;SDS011;8809;51.892;8.384;2022-11-20T05:50:05;13.68;;;8.98;;
17382;SDS011;8809;51.892;8.384;2022-11-20T05:52:44;13.38;;;8.93;;
17382;SDS011;8809;51.892;8.384;2022-11-20T05:55:28;14.00;;;8.75;;
17382;SDS011;8809;51.892;8.384;2022-11-20T05:58:01;11.32;;;8.35;;
17382;SDS011;8809;51.892;8.384;2022-11-20T06:00:30;12.95;;;8.10;;
17382;SDS011;8809;51.892;8.384;2022-11-20T06:03:02;13.60;;;8.05;;
17382;SDS011;8809;51.892;8.384;2022-11-20T06:05:29;11.07;;;7.93;;
17382;SDS011;8809;51.892;8.384;2022-11-20T06:07:57;11.48;;;7.38;;
17382;SDS011;8809;51.892;8.384;2022-11-20T06:10:27;11.10;;;8.20;;
17382;SDS011;8809;51.892;8.384;2022-11-20T06:12:56;13.70;;;8.48;;
17382;SDS011;8809;51.892;8.384;2022-11-20T06:15:24;13.32;;;8.73;;
17382;SDS011;8809;51.892;8.384;2022-11-20T06:17:51;12.20;;;8.20;;
17382;SDS011;8809;51.892;8.384;2022-11-20T06:20:19;14.13;;;8.70;;
17382;SDS011;8809;51.892;8.384;2022-11-20T06:22:46;14.05;;;9.35;;
17382;SDS011;8809;51.892;8.384;2022-11-20T06:25:14;10.65;;;7.53;;
17382;SDS011;8809;51.892;8.384;2022-11-20T06:27:41;11.35;;;7.22;;
17382;SDS011;8809;51.892;8.384;2022-11-20T06:30:10;10.18;;;7.07;;
17382;SDS011;8809;51.892;8.384;2022-11-20T06:32:38;12.05;;;7.82;;
17382;SDS011;8809;51.892;8.384;2022-11-20T06:35:10;12.80;;;8.02;;
17382;SDS011;8809;51.892;8.384;2022-11-20T06:37:50;12.15;;;8.43;;
17382;SDS011;8809;51.892;8.384;2022-11-20T06:40:18;14.40;;;8.18;;
17382;SDS011;8809;51.892;8.384;2022-11-20T06:42:45;12.52;;;8.38;;
17382;SDS011;8809;51.892;8.384;2022-11-20T06:45:12;11.65;;;7.30;;
17382;SDS011;8809;51.892;8.384;2022-11-20T06:47:39;11.27;;;7.53;;
17382;SDS011;8809;51.892;8.384;2022-11-20T06:50:07;12.52;;;7.57;;
17382;SDS011;8809;51.892;8.384;2022-11-20T06:52:36;12.02;;;6.82;;
17382;SDS011;8809;51.892;8.384;2022-11-20T06:55:04;14.48;;;8.15;;
17382;SDS011;8809;51.892;8.384;2022-11-20T06:57:32;12.25;;;7.13;;
17382;SDS011;8809;51.892;8.384;2022-11-20T06:59:59;10.82;;;7.03;;
17382;SDS011;8809;51.892;8.384;2022-11-20T07:02:29;12.20;;;7.03;;
17382;SDS011;8809;51.892;8.384;2022-11-20T07:04:56;10.98;;;6.93;;
17382;SDS011;8809;51.892;8.384;2022-11-20T07:07:24;9.38;;;6.07;;
17382;SDS011;8809;51.892;8.384;2022-11-20T07:09:51;9.13;;;5.85;;
17382;SDS011;8809;51.892;8.384;2022-11-20T07:12:18;10.63;;;6.53;;
17382;SDS011;8809;51.892;8.384;2022-11-20T07:14:46;8.45;;;6.22;;
17382;SDS011;8809;51.892;8.384;2022-11-20T07:17:13;8.80;;;6.20;;
17382;SDS011;8809;51.892;8.384;2022-11-20T07:19:40;7.85;;;5.68;;
17382;SDS011;8809;51.892;8.384;2022-11-20T07:22:08;7.53;;;5.38;;
17382;SDS011;8809;51.892;8.384;2022-11-20T07:24:35;8.75;;;6.18;;
17382;SDS011;8809;51.892;8.384;2022-11-20T07:27:02;9.80;;;6.00;;
17382;SDS011;8809;51.892;8.384;2022-11-20T07:29:29;8.20;;;5.85;;
17382;SDS011;8809;51.892;8.384;2022-11-20T07:31:57;7.72;;;5.40;;
17382;SDS011;8809;51.892;8.384;2022-11-20T07:34:24;7.35;;;5.72;;
17382;SDS011;8809;51.892;8.384;2022-11-20T07:36:55;9.57;;;6.05;;
17382;SDS011;8809;51.892;8.384;2022-11-20T07:39:30;9.13;;;6.10;;
17382;SDS011;8809;51.892;8.384;2022-11-20T07:41:57;8.63;;;6.18;;
17382;SDS011;8809;51.892;8.384;2022-11-20T07:44:24;8.98;;;6.03;;
17382;SDS011;8809;51.892;8.384;2022-11-20T07:46:51;10.20;;;7.07;;
17382;SDS011;8809;51.892;8.384;2022-11-20T07:49:19;8.73;;;6.53;;
17382;SDS011;8809;51.892;8.384;2022-11-20T07:51:46;12.05;;;6.10;;
17382;SDS011;8809;51.892;8.384;2022-11-20T07:54:13;9.52;;;6.10;;
17382;SDS011;8809;51.892;8.384;2022-11-20T07:56:40;10.55;;;6.30;;
17382;SDS011;8809;51.892;8.384;2022-11-20T07:59:07;9.38;;;6.18;;
17382;SDS011;8809;51.892;8.384;2022-11-20T08:01:37;10.60;;;6.57;;
17382;SDS011;8809;51.892;8.384;2022-11-20T08:04:11;9.23;;;6.30;;
17382;SDS011;8809;51.892;8.384;2022-11-20T08:06:39;9.05;;;5.90;;
17382;SDS011;8809;51.892;8.384;2022-11-20T08:09:06;9.63;;;6.72;;
17382;SDS011;8809;51.892;8.384;2022-11-20T08:11:34;11.68;;;6.68;;
17382;SDS011;8809;51.892;8.384;2022-11-20T08:14:19;11.15;;;6.90;;
17382;SDS011;8809;51.892;8.384;2022-11-20T08:16:46;10.15;;;6.80;;
17382;SDS011;8809;51.892;8.384;2022-11-20T08:19:14;11.48;;;6.65;;
17382;SDS011;8809;51.892;8.384;2022-11-20T08:21:44;11.07;;;6.78;;
17382;SDS011;8809;51.892;8.384;2022-11-20T08:24:11;9.52;;;6.45;;
17382;SDS011;8809;51.892;8.384;2022-11-20T08:26:40;12.25;;;7.63;;
17382;SDS011;8809;51.892;8.384;2022-11-20T08:29:28;10.85;;;6.97;;
17382;SDS011;8809;51.892;8.384;2022-11-20T08:32:06;10.07;;;6.70;;
17382;SDS011;8809;51.892;8.384;2022-11-20T08:34:39;11.73;;;6.78;;
17382;SDS011;8809;51.892;8.384;2022-11-20T08:37:08;10.38;;;6.97;;
17382;SDS011;8809;51.892;8.384;2022-11-20T08:39:35;10.68;;;7.50;;
17382;SDS011;8809;51.892;8.384;2022-11-20T08:42:02;10.98;;;7.28;;
17382;SDS011;8809;51.892;8.384;2022-11-20T08:44:32;9.02;;;6.43;;
17382;SDS011;8809;51.892;8.384;2022-11-20T08:47:00;10.60;;;6.80;;
17382;SDS011;8809;51.892;8.384;2022-11-20T08:49:27;12.00;;;7.10;;
17382;SDS011;8809;51.892;8.384;2022-11-20T08:51:54;9.55;;;6.88;;
17382;SDS011;8809;51.892;8.384;2022-11-20T08:54:22;8.75;;;6.38;;
17382;SDS011;8809;51.892;8.384;2022-11-20T08:56:49;10.15;;;7.22;;
17382;SDS011;8809;51.892;8.384;2022-11-20T08:59:16;10.57;;;6.88;;
17382;SDS011;8809;51.892;8.384;2022-11-20T09:01:44;10.18;;;7.00;;
17382;SDS011;8809;51.892;8.384;2022-11-20T09:04:15;8.73;;;6.25;;
17382;SDS011;8809;51.892;8.384;2022-11-20T09:06:42;8.82;;;5.88;;
17382;SDS011;8809;51.892;8.384;2022-11-20T09:09:09;8.32;;;5.80;;
17382;SDS011;8809;51.892;8.384;2022-11-20T09:11:37;8.75;;;6.38;;
17382;SDS011;8809;51.892;8.384;2022-11-20T09:14:04;8.30;;;5.60;;
17382;SDS011;8809;51.892;8.384;2022-11-20T09:16:31;9.20;;;5.95;;
17382;SDS011;8809;51.892;8.384;2022-11-20T09:18:58;8.38;;;5.88;;
17382;SDS011;8809;51.892;8.384;2022-11-20T09:21:25;12.45;;;7.25;;
17382;SDS011;8809;51.892;8.384;2022-11-20T09:23:52;10.68;;;7.13;;
17382;SDS011;8809;51.892;8.384;2022-11-20T09:26:19;13.20;;;8.75;;
17382;SDS011;8809;51.892;8.384;2022-11-20T09:28:47;12.85;;;9.23;;
17382;SDS011;8809;51.892;8.384;2022-11-20T09:31:19;14.40;;;9.50;;
17382;SDS011;8809;51.892;8.384;2022-11-20T09:34:00;13.60;;;8.77;;
17382;SDS011;8809;51.892;8.384;2022-11-20T09:36:43;12.80;;;8.40;;
17382;SDS011;8809;51.892;8.384;2022-11-20T09:39:46;11.25;;;7.80;;
17382;SDS011;8809;51.892;8.384;2022-11-20T09:42:16;10.95;;;7.80;;
17382;SDS011;8809;51.892;8.384;2022-11-20T09:45:00;12.20;;;8.52;;
17382;SDS011;8809;51.892;8.384;2022-11-20T09:47:47;13.38;;;8.88;;
17382;SDS011;8809;51.892;8.384;2022-11-20T09:50:27;14.15;;;9.48;;
17382;SDS011;8809;51.892;8.384;2022-11-20T09:53:12;16.08;;;10.13;;
17382;SDS011;8809;51.892;8.384;2022-11-20T09:56:10;13.60;;;8.95;;
17382;SDS011;8809;51.892;8.384;2022-11-20T09:58:57;13.70;;;8.95;;
17382;SDS011;8809;51.892;8.384;2022-11-20T10:01:30;14.10;;;8.68;;
17382;SDS011;8809;51.892;8.384;2022-11-20T10:04:01;12.52;;;8.02;;
17382;SDS011;8809;51.892;8.384;2022-11-20T10:06:30;12.63;;;8.40;;
17382;SDS011;8809;51.892;8.384;2022-11-20T10:09:01;17.38;;;10.45;;
17382;SDS011;8809;51.892;8.384;2022-11-20T10:11:42;16.15;;;10.23;;
17382;SDS011;8809;51.892;8.384;2022-11-20T10:14:21;14.32;;;9.40;;
17382;SDS011;8809;51.892;8.384;2022-11-20T10:16:59;16.38;;;10.82;;
17382;SDS011;8809;51.892;8.384;2022-11-20T10:19:46;15.30;;;9.60;;
17382;SDS011;8809;51.892;8.384;2022-11-20T10:22:26;14.95;;;9.82;;
17382;SDS011;8809;51.892;8.384;2022-11-20T10:25:05;15.48;;;9.88;;
17382;SDS011;8809;51.892;8.384;2022-11-20T10:30:51;13.18;;;8.73;;
17382;SDS011;8809;51.892;8.384;2022-11-20T10:33:25;12.07;;;8.10;;
17382;SDS011;8809;51.892;8.384;2022-11-20T10:36:00;12.88;;;7.88;;
17382;SDS011;8809;51.892;8.384;2022-11-20T10:38:35;13.88;;;9.35;;
17382;SDS011;8809;51.892;8.384;2022-11-20T10:41:07;12.77;;;8.52;;
17382;SDS011;8809;51.892;8.384;2022-11-20T10:43:52;13.38;;;8.98;;
17382;SDS011;8809;51.892;8.384;2022-11-20T10:46:26;13.52;;;8.82;;
17382;SDS011;8809;51.892;8.384;2022-11-20T10:49:09;14.02;;;9.88;;
17382;SDS011;8809;51.892;8.384;2022-11-20T10:51:44;12.45;;;9.05;;
17382;SDS011;8809;51.892;8.384;2022-11-20T10:54:20;12.60;;;9.00;;
17382;SDS011;8809;51.892;8.384;2022-11-20T10:56:55;13.60;;;9.23;;
17382;SDS011;8809;51.892;8.384;2022-11-20T11:02:39;13.15;;;8.60;;
17382;SDS011;8809;51.892;8.384;2022-11-20T11:05:31;14.07;;;9.13;;
17382;SDS011;8809;51.892;8.384;2022-11-20T11:08:03;14.48;;;9.48;;
17382;SDS011;8809;51.892;8.384;2022-11-20T11:10:36;14.38;;;9.07;;
17382;SDS011;8809;51.892;8.384;2022-11-20T11:13:18;14.30;;;9.18;;
17382;SDS011;8809;51.892;8.384;2022-11-20T11:15:46;15.07;;;10.18;;
17382;SDS011;8809;51.892;8.384;2022-11-20T11:18:22;14.10;;;9.32;;
17382;SDS011;8809;51.892;8.384;2022-11-20T11:20:51;14.52;;;9.50;;
17382;SDS011;8809;51.892;8.384;2022-11-20T11:23:28;15.13;;;10.50;;
17382;SDS011;8809;51.892;8.384;2022-11-20T11:25:58;13.40;;;8.57;;
17382;SDS011;8809;51.892;8.384;2022-11-20T11:28:26;13.68;;;9.35;;
17382;SDS011;8809;51.892;8.384;2022-11-20T11:30:54;16.73;;;11.00;;
17382;SDS011;8809;51.892;8.384;2022-11-20T11:33:23;14.18;;;9.10;;
17382;SDS011;8809;51.892;8.384;2022-11-20T11:35:53;12.95;;;8.57;;
17382;SDS011;8809;51.892;8.384;2022-11-20T11:38:23;12.90;;;8.95;;
17382;SDS011;8809;51.892;8.384;2022-11-20T11:40:56;15.57;;;9.43;;
17382;SDS011;8809;51.892;8.384;2022-11-20T11:43:24;12.52;;;8.70;;
17382;SDS011;8809;51.892;8.384;2022-11-20T11:48:57;17.95;;;11.13;;
17382;SDS011;8809;51.892;8.384;2022-11-20T11:51:34;15.40;;;10.15;;
17382;SDS011;8809;51.892;8.384;2022-11-20T11:54:13;15.50;;;9.77;;
17382;SDS011;8809;51.892;8.384;2022-11-20T11:57:11;13.48;;;8.88;;
17382;SDS011;8809;51.892;8.384;2022-11-20T12:00:11;14.32;;;9.15;;
17382;SDS011;8809;51.892;8.384;2022-11-20T12:02:51;14.93;;;9.80;;
17382;SDS011;8809;51.892;8.384;2022-11-20T12:05:24;14.63;;;9.52;;
17382;SDS011;8809;51.892;8.384;2022-11-20T12:07:56;13.20;;;9.07;;
17382;SDS011;8809;51.892;8.384;2022-11-20T12:10:34;13.13;;;8.50;;
17382;SDS011;8809;51.892;8.384;2022-11-20T12:13:14;12.18;;;9.07;;
17382;SDS011;8809;51.892;8.384;2022-11-20T12:15:48;13.32;;;8.77;;
17382;SDS011;8809;51.892;8.384;2022-11-20T12:18:16;13.43;;;9.25;;
17382;SDS011;8809;51.892;8.384;2022-11-20T12:20:48;13.18;;;8.45;;
17382;SDS011;8809;51.892;8.384;2022-11-20T12:23:30;13.75;;;9.05;;
17382;SDS011;8809;51.892;8.384;2022-11-20T12:26:12;14.57;;;9.10;;
17382;SDS011;8809;51.892;8.384;2022-11-20T12:28:52;15.70;;;9.73;;
17382;SDS011;8809;51.892;8.384;2022-11-20T12:34:35;16.30;;;10.40;;
17382;SDS011;8809;51.892;8.384;2022-11-20T12:37:28;18.95;;;12.20;;
17382;SDS011;8809;51.892;8.384;2022-11-20T12:40:13;16.88;;;10.88;;
17382;SDS011;8809;51.892;8.384;2022-11-20T12:46:18;16.33;;;10.40;;
17382;SDS011;8809;51.892;8.384;2022-11-20T12:51:56;13.07;;;8.82;;
17382;SDS011;8809;51.892;8.384;2022-11-20T12:57:44;11.82;;;8.45;;
17382;SDS011;8809;51.892;8.384;2022-11-20T13:00:17;13.98;;;9.23;;
17382;SDS011;8809;51.892;8.384;2022-11-20T13:05:59;14.38;;;9.63;;
17382;SDS011;8809;51.892;8.384;2022-11-20T13:08:33;14.27;;;9.20;;
17382;SDS011;8809;51.892;8.384;2022-11-20T13:11:04;15.35;;;10.30;;
17382;SDS011;8809;51.892;8.384;2022-11-20T13:13:42;18.27;;;11.93;;
17382;SDS011;8809;51.892;8.384;2022-11-20T13:16:16;16.00;;;10.45;;
17382;SDS011;8809;51.892;8.384;2022-11-20T13:18:46;16.02;;;10.32;;
17382;SDS011;8809;51.892;8.384;2022-11-20T13:21:17;14.20;;;9.50;;
17382;SDS011;8809;51.892;8.384;2022-11-20T13:23:46;15.73;;;10.68;;
17382;SDS011;8809;51.892;8.384;2022-11-20T13:26:16;16.05;;;9.98;;
17382;SDS011;8809;51.892;8.384;2022-11-20T13:28:46;16.52;;;10.30;;
17382;SDS011;8809;51.892;8.384;2022-11-20T13:32:03;14.98;;;9.48;;
17382;SDS011;8809;51.892;8.384;2022-11-20T13:34:33;13.63;;;9.25;;
17382;SDS011;8809;51.892;8.384;2022-11-20T13:37:01;13.95;;;9.65;;
17382;SDS011;8809;51.892;8.384;2022-11-20T13:39:30;15.75;;;9.80;;
17382;SDS011;8809;51.892;8.384;2022-11-20T13:42:01;14.63;;;9.23;;
17382;SDS011;8809;51.892;8.384;2022-11-20T13:44:48;12.85;;;9.05;;
17382;SDS011;8809;51.892;8.384;2022-11-20T13:47:20;15.10;;;9.60;;
17382;SDS011;8809;51.892;8.384;2022-11-20T13:49:48;14.00;;;8.98;;
17382;SDS011;8809;51.892;8.384;2022-11-20T13:52:26;13.80;;;9.25;;
17382;SDS011;8809;51.892;8.384;2022-11-20T13:55:05;11.93;;;8.70;;
17382;SDS011;8809;51.892;8.384;2022-11-20T13:57:54;12.00;;;8.32;;
17382;SDS011;8809;51.892;8.384;2022-11-20T14:00:29;10.13;;;7.78;;
17382;SDS011;8809;51.892;8.384;2022-11-20T14:03:01;11.30;;;8.27;;
17382;SDS011;8809;51.892;8.384;2022-11-20T14:05:38;11.65;;;7.65;;
17382;SDS011;8809;51.892;8.384;2022-11-20T14:08:19;10.80;;;7.10;;
17382;SDS011;8809;51.892;8.384;2022-11-20T14:11:02;12.02;;;7.32;;
17382;SDS011;8809;51.892;8.384;2022-11-20T14:13:32;10.30;;;6.75;;
17382;SDS011;8809;51.892;8.384;2022-11-20T14:15:59;9.82;;;6.65;;
17382;SDS011;8809;51.892;8.384;2022-11-20T14:18:26;10.15;;;6.88;;
17382;SDS011;8809;51.892;8.384;2022-11-20T14:20:54;9.80;;;5.88;;
17382;SDS011;8809;51.892;8.384;2022-11-20T14:23:24;9.55;;;6.07;;
17382;SDS011;8809;51.892;8.384;2022-11-20T14:25:53;9.05;;;6.32;;
17382;SDS011;8809;51.892;8.384;2022-11-20T14:28:33;9.27;;;6.30;;
17382;SDS011;8809;51.892;8.384;2022-11-20T14:31:16;10.55;;;6.85;;
17382;SDS011;8809;51.892;8.384;2022-11-20T14:33:49;10.63;;;6.72;;
17382;SDS011;8809;51.892;8.384;2022-11-20T14:36:17;8.98;;;6.47;;
17382;SDS011;8809;51.892;8.384;2022-11-20T14:38:58;8.52;;;6.00;;
17382;SDS011;8809;51.892;8.384;2022-11-20T14:41:25;8.30;;;5.93;;
17382;SDS011;8809;51.892;8.384;2022-11-20T14:44:01;8.68;;;6.07;;
17382;SDS011;8809;51.892;8.384;2022-11-20T14:46:31;7.28;;;5.43;;
17382;SDS011;8809;51.892;8.384;2022-11-20T14:49:00;8.65;;;5.78;;
17382;SDS011;8809;51.892;8.384;2022-11-20T14:51:31;9.80;;;6.53;;
17382;SDS011;8809;51.892;8.384;2022-11-20T14:54:14;8.93;;;6.22;;
17382;SDS011;8809;51.892;8.384;2022-11-20T14:56:42;9.98;;;6.47;;
17382;SDS011;8809;51.892;8.384;2022-11-20T14:59:29;9.25;;;6.13;;
17382;SDS011;8809;51.892;8.384;2022-11-20T15:02:16;8.70;;;6.10;;
17382;SDS011;8809;51.892;8.384;2022-11-20T15:04:47;7.93;;;5.50;;
17382;SDS011;8809;51.892;8.384;2022-11-20T15:07:23;9.77;;;5.85;;
17382;SDS011;8809;51.892;8.384;2022-11-20T15:10:04;8.85;;;6.13;;
17382;SDS011;8809;51.892;8.384;2022-11-20T15:12:34;9.38;;;6.35;;
17382;SDS011;8809;51.892;8.384;2022-11-20T15:15:16;8.23;;;5.57;;
17382;SDS011;8809;51.892;8.384;2022-11-20T15:17:47;8.50;;;6.07;;
17382;SDS011;8809;51.892;8.384;2022-11-20T15:20:15;9.93;;;6.20;;
17382;SDS011;8809;51.892;8.384;2022-11-20T15:22:43;11.52;;;7.03;;
17382;SDS011;8809;51.892;8.384;2022-11-20T15:25:14;10.55;;;6.53;;
17382;SDS011;8809;51.892;8.384;2022-11-20T15:27:43;10.35;;;6.20;;
17382;SDS011;8809;51.892;8.384;2022-11-20T15:30:17;12.50;;;7.07;;
17382;SDS011;8809;51.892;8.384;2022-11-20T15:32:45;9.93;;;7.10;;
17382;SDS011;8809;51.892;8.384;2022-11-20T15:35:13;10.73;;;6.88;;
17382;SDS011;8809;51.892;8.384;2022-11-20T15:37:41;9.88;;;6.80;;
17382;SDS011;8809;51.892;8.384;2022-11-20T15:40:11;9.00;;;5.90;;
17382;SDS011;8809;51.892;8.384;2022-11-20T15:42:39;9.68;;;6.03;;
17382;SDS011;8809;51.892;8.384;2022-11-20T15:45:28;9.15;;;6.45;;
17382;SDS011;8809;51.892;8.384;2022-11-20T15:47:57;11.18;;;6.70;;